sensor_id;sensor_type;location;lat;lon;timestamp;pressure;altitude;pressure_sealevel;temperature;humidity
51289;BME280;37372;52.294;5.152;2023-07-13T00:00:29;101264.47;;;16.78;89.70
51289;BME280;37372;52.294;5.152;2023-07-13T00:03:09;101260.56;;;16.74;90.21
51289;BME280;37372;52.294;5.152;2023-07-13T00:05:39;101261.09;;;16.71;90.76
51289;BME280;37372;52.294;5.152;2023-07-13T00:08:07;101263.19;;;16.64;90.80
51289;BME280;37372;52.294;5.152;2023-07-13T00:10:33;101260.69;;;16.62;91.14
51289;BME280;37372;52.294;5.152;2023-07-13T00:13:04;101259.47;;;16.53;91.50
51289;BME280;37372;52.294;5.152;2023-07-13T00:15:30;101257.81;;;16.52;92.15
51289;BME280;37372;52.294;5.152;2023-07-13T00:17:58;101265.22;;;16.46;92.13
51289;BME280;37372;52.294;5.152;2023-07-13T00:20:27;101261.31;;;16.42;92.50
51289;BME280;37372;52.294;5.152;2023-07-13T00:22:58;101260.44;;;16.42;92.85
51289;BME280;37372;52.294;5.152;2023-07-13T00:25:26;101261.25;;;16.37;93.09
51289;BME280;37372;52.294;5.152;2023-07-13T00:27:57;101261.25;;;16.37;93.22
51289;BME280;37372;52.294;5.152;2023-07-13T00:30:24;101266.59;;;16.44;93.03
51289;BME280;37372;52.294;5.152;2023-07-13T00:33:00;101264.59;;;16.39;93.50
51289;BME280;37372;52.294;5.152;2023-07-13T00:35:31;101264.53;;;16.34;93.11
51289;BME280;37372;52.294;5.152;2023-07-13T00:38:01;101262.78;;;16.28;94.00
51289;BME280;37372;52.294;5.152;2023-07-13T00:40:28;101263.59;;;16.23;94.08
51289;BME280;37372;52.294;5.152;2023-07-13T00:43:13;101256.94;;;16.24;94.50
51289;BME280;37372;52.294;5.152;2023-07-13T00:48:09;101261.31;;;16.20;94.47
51289;BME280;37372;52.294;5.152;2023-07-13T00:50:35;101259.91;;;16.18;94.98
51289;BME280;37372;52.294;5.152;2023-07-13T00:53:04;101259.38;;;16.21;94.89
51289;BME280;37372;52.294;5.152;2023-07-13T00:55:34;101259.38;;;16.21;94.98
51289;BME280;37372;52.294;5.152;2023-07-13T00:58:05;101255.22;;;16.18;94.59
51289;BME280;37372;52.294;5.152;2023-07-13T01:00:34;101257.38;;;16.16;94.70
51289;BME280;37372;52.294;5.152;2023-07-13T01:03:07;101258.75;;;16.14;95.26
51289;BME280;37372;52.294;5.152;2023-07-13T01:05:34;101262.34;;;16.14;95.59
51289;BME280;37372;52.294;5.152;2023-07-13T01:08:04;101270.91;;;16.13;95.60
51289;BME280;37372;52.294;5.152;2023-07-13T01:10:31;101266.47;;;16.12;95.21
51289;BME280;37372;52.294;5.152;2023-07-13T01:13:11;101267.25;;;16.07;95.81
51289;BME280;37372;52.294;5.152;2023-07-13T01:15:42;101264.16;;;16.04;96.19
51289;BME280;37372;52.294;5.152;2023-07-13T01:18:24;101271.59;;;16.03;96.38
51289;BME280;37372;52.294;5.152;2023-07-13T01:21:04;101268.53;;;16.00;97.08
51289;BME280;37372;52.294;5.152;2023-07-13T01:23:31;101260.03;;;16.06;97.20
51289;BME280;37372;52.294;5.152;2023-07-13T01:25:59;101267.06;;;16.14;96.63
51289;BME280;37372;52.294;5.152;2023-07-13T01:28:32;101269.88;;;16.19;96.83
51289;BME280;37372;52.294;5.152;2023-07-13T01:31:03;101272.72;;;16.24;96.36
51289;BME280;37372;52.294;5.152;2023-07-13T01:33:30;101277.66;;;16.22;96.25
51289;BME280;37372;52.294;5.152;2023-07-13T01:35:56;101273.75;;;16.18;96.61
51289;BME280;37372;52.294;5.152;2023-07-13T01:38:25;101271.41;;;16.10;96.92
51289;BME280;37372;52.294;5.152;2023-07-13T01:40:52;101269.44;;;16.05;97.54
51289;BME280;37372;52.294;5.152;2023-07-13T01:43:19;101278.50;;;16.01;97.59
51289;BME280;37372;52.294;5.152;2023-07-13T01:45:45;101276.50;;;15.96;97.96
51289;BME280;37372;52.294;5.152;2023-07-13T01:48:13;101278.69;;;15.94;98.27
51289;BME280;37372;52.294;5.152;2023-07-13T01:50:39;101281.72;;;15.92;98.18
51289;BME280;37372;52.294;5.152;2023-07-13T01:53:11;101276.94;;;15.88;98.40
51289;BME280;37372;52.294;5.152;2023-07-13T01:55:43;101293.81;;;15.86;99.11
51289;BME280;37372;52.294;5.152;2023-07-13T01:58:19;101289.59;;;15.84;99.10
51289;BME280;37372;52.294;5.152;2023-07-13T02:00:48;101287.94;;;15.83;99.47
51289;BME280;37372;52.294;5.152;2023-07-13T02:03:20;101287.03;;;15.77;99.09
51289;BME280;37372;52.294;5.152;2023-07-13T02:05:46;101283.69;;;15.75;99.17
51289;BME280;37372;52.294;5.152;2023-07-13T02:08:18;101283.69;;;15.75;99.91
51289;BME280;37372;52.294;5.152;2023-07-13T02:10:45;101283.59;;;15.70;99.39
51289;BME280;37372;52.294;5.152;2023-07-13T02:13:19;101291.31;;;15.68;99.87
51289;BME280;37372;52.294;5.152;2023-07-13T02:15:44;101299.53;;;15.63;99.88
51289;BME280;37372;52.294;5.152;2023-07-13T02:18:19;101294.50;;;15.60;99.94
51289;BME280;37372;52.294;5.152;2023-07-13T02:20:48;101287.03;;;15.60;100.00
51289;BME280;37372;52.294;5.152;2023-07-13T02:23:23;101296.66;;;15.58;100.00
51289;BME280;37372;52.294;5.152;2023-07-13T02:25:49;101303.81;;;15.54;99.97
51289;BME280;37372;52.294;5.152;2023-07-13T02:28:22;101301.03;;;15.54;100.00
51289;BME280;37372;52.294;5.152;2023-07-13T02:30:50;101302.63;;;15.50;100.00
51289;BME280;37372;52.294;5.152;2023-07-13T02:33:26;101303.16;;;15.47;100.00
51289;BME280;37372;52.294;5.152;2023-07-13T02:35:51;101301.97;;;15.42;99.91
51289;BME280;37372;52.294;5.152;2023-07-13T02:38:22;101296.94;;;15.39;99.90
51289;BME280;37372;52.294;5.152;2023-07-13T02:40:49;101295.25;;;15.38;99.79
51289;BME280;37372;52.294;5.152;2023-07-13T02:43:30;101297.19;;;15.38;99.71
51289;BME280;37372;52.294;5.152;2023-07-13T02:45:56;101294.94;;;15.35;99.73
51289;BME280;37372;52.294;5.152;2023-07-13T02:48:28;101300.72;;;15.33;99.68
51289;BME280;37372;52.294;5.152;2023-07-13T02:50:54;101301.78;;;15.32;99.83
51289;BME280;37372;52.294;5.152;2023-07-13T02:53:26;101300.19;;;15.36;99.66
51289;BME280;37372;52.294;5.152;2023-07-13T02:56:01;101301.28;;;15.35;99.58
51289;BME280;37372;52.294;5.152;2023-07-13T02:58:28;101306.25;;;15.33;99.36
51289;BME280;37372;52.294;5.152;2023-07-13T03:00:57;101312.84;;;15.32;99.65
51289;BME280;37372;52.294;5.152;2023-07-13T03:03:51;101311.78;;;15.33;99.67
51289;BME280;37372;52.294;5.152;2023-07-13T03:06:20;101303.97;;;15.30;99.54
51289;BME280;37372;52.294;5.152;2023-07-13T03:08:47;101300.28;;;15.25;99.52
51289;BME280;37372;52.294;5.152;2023-07-13T03:11:20;101304.97;;;15.24;99.45
51289;BME280;37372;52.294;5.152;2023-07-13T03:13:46;101308.25;;;15.21;98.69
51289;BME280;37372;52.294;5.152;2023-07-13T03:16:15;101306.81;;;15.18;98.70
51289;BME280;37372;52.294;5.152;2023-07-13T03:18:41;101310.19;;;15.21;98.93
51289;BME280;37372;52.294;5.152;2023-07-13T03:21:07;101312.59;;;15.17;98.66
51289;BME280;37372;52.294;5.152;2023-07-13T03:23:33;101320.31;;;15.15;98.02
51289;BME280;37372;52.294;5.152;2023-07-13T03:28:36;101308.06;;;15.11;98.90
51289;BME280;37372;52.294;5.152;2023-07-13T03:31:12;101308.66;;;15.13;98.74
51289;BME280;37372;52.294;5.152;2023-07-13T03:33:41;101311.66;;;15.11;97.70
51289;BME280;37372;52.294;5.152;2023-07-13T03:36:09;101305.56;;;15.09;97.85
51289;BME280;37372;52.294;5.152;2023-07-13T03:38:46;101314.94;;;15.08;97.29
51289;BME280;37372;52.294;5.152;2023-07-13T03:41:18;101313.25;;;15.07;97.36
51289;BME280;37372;52.294;5.152;2023-07-13T03:43:44;101322.41;;;15.08;96.26
51289;BME280;37372;52.294;5.152;2023-07-13T03:46:13;101316.03;;;15.07;96.33
51289;BME280;37372;52.294;5.152;2023-07-13T03:48:40;101324.91;;;15.09;96.13
51289;BME280;37372;52.294;5.152;2023-07-13T03:51:06;101320.47;;;15.08;95.80
51289;BME280;37372;52.294;5.152;2023-07-13T03:53:41;101322.97;;;15.10;95.24
51289;BME280;37372;52.294;5.152;2023-07-13T03:56:09;101323.44;;;15.07;95.13
51289;BME280;37372;52.294;5.152;2023-07-13T03:58:44;101318.78;;;15.07;96.11
51289;BME280;37372;52.294;5.152;2023-07-13T04:01:18;101331.00;;;15.11;95.82
51289;BME280;37372;52.294;5.152;2023-07-13T04:03:45;101327.16;;;15.12;95.78
51289;BME280;37372;52.294;5.152;2023-07-13T04:06:30;101332.94;;;15.11;95.53
51289;BME280;37372;52.294;5.152;2023-07-13T04:08:59;101333.78;;;15.11;95.82
51289;BME280;37372;52.294;5.152;2023-07-13T04:11:28;101327.16;;;15.12;96.09
51289;BME280;37372;52.294;5.152;2023-07-13T04:13:56;101326.94;;;15.14;95.90
51289;BME280;37372;52.294;5.152;2023-07-13T04:16:22;101337.47;;;15.17;96.16
51289;BME280;37372;52.294;5.152;2023-07-13T04:18:49;101338.31;;;15.17;96.54
51289;BME280;37372;52.294;5.152;2023-07-13T04:21:18;101345.28;;;15.20;96.54
51289;BME280;37372;52.294;5.152;2023-07-13T04:23:49;101335.63;;;15.23;96.69
51289;BME280;37372;52.294;5.152;2023-07-13T04:26:15;101342.00;;;15.23;96.50
51289;BME280;37372;52.294;5.152;2023-07-13T04:29:07;101344.50;;;15.25;96.94
51289;BME280;37372;52.294;5.152;2023-07-13T04:31:36;101344.03;;;15.28;97.37
51289;BME280;37372;52.294;5.152;2023-07-13T04:34:03;101354.31;;;15.32;97.65
51289;BME280;37372;52.294;5.152;2023-07-13T04:36:29;101359.34;;;15.35;97.56
51289;BME280;37372;52.294;5.152;2023-07-13T04:39:00;101359.19;;;15.42;98.10
51289;BME280;37372;52.294;5.152;2023-07-13T04:41:28;101363.63;;;15.43;97.76
51289;BME280;37372;52.294;5.152;2023-07-13T04:43:54;101361.53;;;15.50;98.42
51289;BME280;37372;52.294;5.152;2023-07-13T04:46:19;101365.75;;;15.53;98.32
51289;BME280;37372;52.294;5.152;2023-07-13T04:48:58;101363.81;;;15.53;98.54
51289;BME280;37372;52.294;5.152;2023-07-13T04:51:24;101361.88;;;15.54;98.88
51289;BME280;37372;52.294;5.152;2023-07-13T04:53:54;101362.72;;;15.54;99.10
51289;BME280;37372;52.294;5.152;2023-07-13T04:56:20;101354.72;;;15.58;99.61
51289;BME280;37372;52.294;5.152;2023-07-13T04:58:56;101366.28;;;15.66;99.20
51289;BME280;37372;52.294;5.152;2023-07-13T05:01:24;101370.34;;;15.64;99.56
51289;BME280;37372;52.294;5.152;2023-07-13T05:04:01;101364.91;;;15.69;99.54
51289;BME280;37372;52.294;5.152;2023-07-13T05:06:37;101367.78;;;15.74;99.74
51289;BME280;37372;52.294;5.152;2023-07-13T05:09:03;101378.91;;;15.79;99.64
51289;BME280;37372;52.294;5.152;2023-07-13T05:11:29;101377.81;;;15.80;99.78
51289;BME280;37372;52.294;5.152;2023-07-13T05:14:00;101369.63;;;15.85;100.00
51289;BME280;37372;52.294;5.152;2023-07-13T05:16:28;101378.22;;;15.89;99.63
51289;BME280;37372;52.294;5.152;2023-07-13T05:18:59;101386.88;;;15.92;100.00
51289;BME280;37372;52.294;5.152;2023-07-13T05:21:24;101385.25;;;15.96;100.00
51289;BME280;37372;52.294;5.152;2023-07-13T05:23:58;101385.06;;;16.03;100.00
51289;BME280;37372;52.294;5.152;2023-07-13T05:26:23;101387.84;;;16.03;100.00
51289;BME280;37372;52.294;5.152;2023-07-13T05:28:58;101384.97;;;16.15;99.75
51289;BME280;37372;52.294;5.152;2023-07-13T05:31:24;101390.84;;;16.18;99.89
51289;BME280;37372;52.294;5.152;2023-07-13T05:33:53;101393.25;;;16.32;99.19
51289;BME280;37372;52.294;5.152;2023-07-13T05:36:26;101393.56;;;16.35;99.20
51289;BME280;37372;52.294;5.152;2023-07-13T05:39:09;101404.53;;;16.47;98.74
51289;BME280;37372;52.294;5.152;2023-07-13T05:41:35;101400.25;;;16.56;98.67
51289;BME280;37372;52.294;5.152;2023-07-13T05:44:01;101398.38;;;16.62;98.06
51289;BME280;37372;52.294;5.152;2023-07-13T05:46:26;101401.78;;;16.69;97.17
51289;BME280;37372;52.294;5.152;2023-07-13T05:49:04;101403.78;;;16.73;97.88
51289;BME280;37372;52.294;5.152;2023-07-13T05:51:30;101405.22;;;16.76;97.30
51289;BME280;37372;52.294;5.152;2023-07-13T05:54:00;101413.66;;;16.86;96.70
51289;BME280;37372;52.294;5.152;2023-07-13T05:56:28;101400.75;;;16.97;96.73
51289;BME280;37372;52.294;5.152;2023-07-13T05:59:02;101408.88;;;17.03;95.91
51289;BME280;37372;52.294;5.152;2023-07-13T06:01:32;101410.81;;;17.03;95.58
51289;BME280;37372;52.294;5.152;2023-07-13T06:04:03;101409.06;;;17.24;95.53
51289;BME280;37372;52.294;5.152;2023-07-13T06:06:31;101407.75;;;17.26;94.65
51289;BME280;37372;52.294;5.152;2023-07-13T06:09:03;101403.03;;;17.27;94.94
51289;BME280;37372;52.294;5.152;2023-07-13T06:11:37;101410.97;;;17.45;94.29
51289;BME280;37372;52.294;5.152;2023-07-13T06:14:03;101411.31;;;17.54;93.37
51289;BME280;37372;52.294;5.152;2023-07-13T06:16:30;101423.38;;;17.70;92.67
51289;BME280;37372;52.294;5.152;2023-07-13T06:21:45;101423.97;;;18.04;91.45
51289;BME280;37372;52.294;5.152;2023-07-13T06:24:11;101419.78;;;18.01;90.84
51289;BME280;37372;52.294;5.152;2023-07-13T06:26:36;101428.75;;;18.13;90.17
51289;BME280;37372;52.294;5.152;2023-07-13T06:29:07;101425.41;;;18.59;88.33
51289;BME280;37372;52.294;5.152;2023-07-13T06:31:35;101421.91;;;18.74;87.25
51289;BME280;37372;52.294;5.152;2023-07-13T06:34:13;101424.69;;;18.69;86.64
51289;BME280;37372;52.294;5.152;2023-07-13T06:36:39;101424.91;;;18.67;87.42
51289;BME280;37372;52.294;5.152;2023-07-13T06:39:08;101429.41;;;18.68;87.67
51289;BME280;37372;52.294;5.152;2023-07-13T06:41:36;101429.66;;;18.66;87.91
51289;BME280;37372;52.294;5.152;2023-07-13T06:44:15;101423.09;;;18.93;85.71
51289;BME280;37372;52.294;5.152;2023-07-13T06:46:41;101430.41;;;19.14;85.31
51289;BME280;37372;52.294;5.152;2023-07-13T06:49:12;101436.00;;;19.30;84.27
51289;BME280;37372;52.294;5.152;2023-07-13T06:51:44;101440.75;;;19.39;83.92
51289;BME280;37372;52.294;5.152;2023-07-13T06:54:14;101432.16;;;19.46;83.66
51289;BME280;37372;52.294;5.152;2023-07-13T06:56:42;101426.06;;;19.64;81.24
51289;BME280;37372;52.294;5.152;2023-07-13T06:59:13;101426.06;;;19.85;80.17
51289;BME280;37372;52.294;5.152;2023-07-13T07:01:40;101418.28;;;19.66;80.27
51289;BME280;37372;52.294;5.152;2023-07-13T07:04:20;101444.06;;;19.31;79.27
51289;BME280;37372;52.294;5.152;2023-07-13T07:06:46;101440.53;;;18.73;79.90
51289;BME280;37372;52.294;5.152;2023-07-13T07:09:19;101443.94;;;18.38;80.31
51289;BME280;37372;52.294;5.152;2023-07-13T07:11:48;101454.59;;;18.14;78.66
51289;BME280;37372;52.294;5.152;2023-07-13T07:14:15;101462.97;;;17.87;79.52
51289;BME280;37372;52.294;5.152;2023-07-13T07:16:41;101480.97;;;17.57;81.78
51289;BME280;37372;52.294;5.152;2023-07-13T07:19:12;101487.28;;;17.48;83.58
51289;BME280;37372;52.294;5.152;2023-07-13T07:21:45;101488.31;;;17.42;84.72
51289;BME280;37372;52.294;5.152;2023-07-13T07:24:11;101493.31;;;17.45;85.17
51289;BME280;37372;52.294;5.152;2023-07-13T07:26:39;101481.19;;;17.73;85.54
51289;BME280;37372;52.294;5.152;2023-07-13T07:29:08;101484.75;;;18.00;85.10
51289;BME280;37372;52.294;5.152;2023-07-13T07:31:51;101478.59;;;18.30;82.62
51289;BME280;37372;52.294;5.152;2023-07-13T07:34:24;101479.84;;;18.50;79.66
51289;BME280;37372;52.294;5.152;2023-07-13T07:36:50;101486.75;;;18.89;75.17
51289;BME280;37372;52.294;5.152;2023-07-13T07:39:23;101481.03;;;19.16;74.05
51289;BME280;37372;52.294;5.152;2023-07-13T07:41:51;101483.03;;;19.36;73.08
51289;BME280;37372;52.294;5.152;2023-07-13T07:44:28;101483.31;;;19.35;72.58
51289;BME280;37372;52.294;5.152;2023-07-13T07:46:59;101486.13;;;19.40;71.71
51289;BME280;37372;52.294;5.152;2023-07-13T07:49:29;101481.91;;;19.27;72.56
51289;BME280;37372;52.294;5.152;2023-07-13T07:51:55;101486.88;;;19.20;71.88
51289;BME280;37372;52.294;5.152;2023-07-13T07:54:25;101481.19;;;18.89;70.92
51289;BME280;37372;52.294;5.152;2023-07-13T07:56:54;101481.44;;;18.83;72.43
51289;BME280;37372;52.294;5.152;2023-07-13T07:59:28;101479.50;;;18.83;72.50
51289;BME280;37372;52.294;5.152;2023-07-13T08:01:53;101485.13;;;18.99;72.47
51289;BME280;37372;52.294;5.152;2023-07-13T08:04:33;101476.56;;;19.15;73.58
51289;BME280;37372;52.294;5.152;2023-07-13T08:07:00;101481.38;;;19.51;72.80
51289;BME280;37372;52.294;5.152;2023-07-13T08:09:28;101478.41;;;20.13;70.74
51289;BME280;37372;52.294;5.152;2023-07-13T08:11:54;101482.28;;;20.58;70.06
51289;BME280;37372;52.294;5.152;2023-07-13T08:14:35;101474.69;;;20.79;69.56
51289;BME280;37372;52.294;5.152;2023-07-13T08:17:01;101474.69;;;20.79;69.50
51289;BME280;37372;52.294;5.152;2023-07-13T08:19:35;101477.00;;;20.57;70.71
51289;BME280;37372;52.294;5.152;2023-07-13T08:22:00;101475.81;;;20.73;70.80
51289;BME280;37372;52.294;5.152;2023-07-13T08:24:31;101473.03;;;20.78;70.97
51289;BME280;37372;52.294;5.152;2023-07-13T08:26:57;101473.13;;;21.22;68.64
51289;BME280;37372;52.294;5.152;2023-07-13T08:29:37;101472.72;;;20.90;70.34
51289;BME280;37372;52.294;5.152;2023-07-13T08:32:08;101475.03;;;20.57;70.67
51289;BME280;37372;52.294;5.152;2023-07-13T08:34:40;101478.97;;;20.05;72.89
51289;BME280;37372;52.294;5.152;2023-07-13T08:37:09;101477.84;;;19.75;73.66
51289;BME280;37372;52.294;5.152;2023-07-13T08:40:00;101480.63;;;20.01;73.76
51289;BME280;37372;52.294;5.152;2023-07-13T08:42:30;101485.09;;;19.92;73.12
51289;BME280;37372;52.294;5.152;2023-07-13T08:45:07;101487.31;;;19.69;73.32
51289;BME280;37372;52.294;5.152;2023-07-13T08:47:39;101487.56;;;19.58;72.23
51289;BME280;37372;52.294;5.152;2023-07-13T08:50:11;101491.75;;;19.60;73.61
51289;BME280;37372;52.294;5.152;2023-07-13T08:52:40;101485.66;;;19.84;74.09
51289;BME280;37372;52.294;5.152;2023-07-13T08:55:20;101493.44;;;20.02;74.63
51289;BME280;37372;52.294;5.152;2023-07-13T08:57:54;101490.09;;;20.20;74.73
51289;BME280;37372;52.294;5.152;2023-07-13T09:00:37;101486.44;;;20.76;74.21
51289;BME280;37372;52.294;5.152;2023-07-13T09:03:20;101488.19;;;21.21;71.26
51289;BME280;37372;52.294;5.152;2023-07-13T09:05:57;101485.31;;;20.72;71.20
51289;BME280;37372;52.294;5.152;2023-07-13T09:16:36;101502.63;;;20.69;69.45
51289;BME280;37372;52.294;5.152;2023-07-13T09:19:21;101495.09;;;20.34;70.51
51289;BME280;37372;52.294;5.152;2023-07-13T09:21:53;101500.97;;;20.22;70.18
51289;BME280;37372;52.294;5.152;2023-07-13T09:24:57;101515.47;;;19.93;70.94
51289;BME280;37372;52.294;5.152;2023-07-13T09:27:29;101516.25;;;19.68;69.27
51289;BME280;37372;52.294;5.152;2023-07-13T09:32:37;101512.38;;;20.41;70.76
51289;BME280;37372;52.294;5.152;2023-07-13T09:35:11;101505.69;;;20.62;70.10
51289;BME280;37372;52.294;5.152;2023-07-13T09:37:38;101511.81;;;20.59;70.17
51289;BME280;37372;52.294;5.152;2023-07-13T09:40:14;101513.81;;;20.48;68.18
51289;BME280;37372;52.294;5.152;2023-07-13T09:42:43;101511.00;;;20.53;67.76
51289;BME280;37372;52.294;5.152;2023-07-13T09:45:17;101521.88;;;20.45;67.08
51289;BME280;37372;52.294;5.152;2023-07-13T09:47:59;101511.56;;;20.30;62.52
51289;BME280;37372;52.294;5.152;2023-07-13T09:50:25;101522.63;;;20.86;59.51
51289;BME280;37372;52.294;5.152;2023-07-13T09:53:01;101520.63;;;21.07;60.41
51289;BME280;37372;52.294;5.152;2023-07-13T09:55:40;101518.22;;;21.50;60.24
51289;BME280;37372;52.294;5.152;2023-07-13T10:01:05;101540.84;;;21.43;58.09
51289;BME280;37372;52.294;5.152;2023-07-13T10:03:34;101532.94;;;20.91;58.83
51289;BME280;37372;52.294;5.152;2023-07-13T10:06:14;101537.16;;;20.88;60.10
51289;BME280;37372;52.294;5.152;2023-07-13T10:08:40;101542.16;;;20.91;60.05
51289;BME280;37372;52.294;5.152;2023-07-13T10:13:52;101546.50;;;21.33;59.78
51289;BME280;37372;52.294;5.152;2023-07-13T10:16:31;101547.56;;;21.42;58.06
51289;BME280;37372;52.294;5.152;2023-07-13T10:19:05;101547.91;;;21.30;58.84
51289;BME280;37372;52.294;5.152;2023-07-13T10:24:36;101553.00;;;21.68;58.94
51289;BME280;37372;52.294;5.152;2023-07-13T10:27:16;101556.31;;;21.75;58.57
51289;BME280;37372;52.294;5.152;2023-07-13T10:29:56;101569.66;;;21.39;57.97
51289;BME280;37372;52.294;5.152;2023-07-13T10:32:31;101564.16;;;21.08;59.15
51289;BME280;37372;52.294;5.152;2023-07-13T10:35:09;101565.16;;;21.43;60.02
51289;BME280;37372;52.294;5.152;2023-07-13T10:40:18;101573.94;;;21.70;57.36
51289;BME280;37372;52.294;5.152;2023-07-13T10:42:52;101566.81;;;21.44;56.77
51289;BME280;37372;52.294;5.152;2023-07-13T10:45:23;101573.28;;;21.39;57.80
51289;BME280;37372;52.294;5.152;2023-07-13T10:47:52;101570.78;;;21.22;58.18
51289;BME280;37372;52.294;5.152;2023-07-13T10:50:26;101577.56;;;21.06;58.45
51289;BME280;37372;52.294;5.152;2023-07-13T10:53:02;101571.41;;;21.04;59.81
51289;BME280;37372;52.294;5.152;2023-07-13T10:58:28;101583.44;;;20.84;60.25
51289;BME280;37372;52.294;5.152;2023-07-13T11:03:46;101595.63;;;21.29;59.53
51289;BME280;37372;52.294;5.152;2023-07-13T11:12:09;101597.81;;;21.37;57.84
51289;BME280;37372;52.294;5.152;2023-07-13T11:15:06;101598.41;;;21.39;58.03
51289;BME280;37372;52.294;5.152;2023-07-13T11:17:47;101602.03;;;21.34;57.93
51289;BME280;37372;52.294;5.152;2023-07-13T11:20:23;101595.66;;;21.08;56.73
51289;BME280;37372;52.294;5.152;2023-07-13T11:25:36;101601.25;;;21.14;56.60
51289;BME280;37372;52.294;5.152;2023-07-13T11:36:19;101603.06;;;21.54;56.41
51289;BME280;37372;52.294;5.152;2023-07-13T11:39:03;101598.28;;;21.65;55.67
51289;BME280;37372;52.294;5.152;2023-07-13T11:41:51;101603.59;;;21.61;54.12
51289;BME280;37372;52.294;5.152;2023-07-13T11:44:20;101611.13;;;21.66;55.07
51289;BME280;37372;52.294;5.152;2023-07-13T11:46:50;101602.53;;;21.52;55.93
51289;BME280;37372;52.294;5.152;2023-07-13T11:49:22;101618.63;;;21.70;56.01
51289;BME280;37372;52.294;5.152;2023-07-13T11:51:50;101612.78;;;21.67;55.46
51289;BME280;37372;52.294;5.152;2023-07-13T11:54:52;101611.44;;;21.59;55.81
51289;BME280;37372;52.294;5.152;2023-07-13T11:57:33;101614.84;;;21.41;54.53
51289;BME280;37372;52.294;5.152;2023-07-13T12:00:17;101607.63;;;21.29;56.66
51289;BME280;37372;52.294;5.152;2023-07-13T12:02:46;101605.41;;;21.21;56.71
51289;BME280;37372;52.294;5.152;2023-07-13T12:05:26;101613.22;;;21.29;57.06
51289;BME280;37372;52.294;5.152;2023-07-13T12:07:52;101623.53;;;21.39;57.66
51289;BME280;37372;52.294;5.152;2023-07-13T12:10:28;101606.06;;;21.73;55.87
51289;BME280;37372;52.294;5.152;2023-07-13T12:13:05;101604.09;;;21.73;56.42
51289;BME280;37372;52.294;5.152;2023-07-13T12:15:49;101605.03;;;21.48;58.55
51289;BME280;37372;52.294;5.152;2023-07-13T12:18:52;101617.66;;;21.35;58.39
51289;BME280;37372;52.294;5.152;2023-07-13T12:21:25;101613.19;;;21.40;57.88
51289;BME280;37372;52.294;5.152;2023-07-13T12:23:55;101609.31;;;21.20;59.19
51289;BME280;37372;52.294;5.152;2023-07-13T12:26:20;101613.19;;;21.34;58.56
51289;BME280;37372;52.294;5.152;2023-07-13T12:28:49;101622.03;;;21.57;58.22
51289;BME280;37372;52.294;5.152;2023-07-13T12:31:44;101615.78;;;21.80;55.94
51289;BME280;37372;52.294;5.152;2023-07-13T12:34:21;101611.38;;;21.69;56.83
51289;BME280;37372;52.294;5.152;2023-07-13T12:37:01;101616.84;;;21.89;57.73
51289;BME280;37372;52.294;5.152;2023-07-13T12:39:34;101614.50;;;22.12;55.84
51289;BME280;37372;52.294;5.152;2023-07-13T12:42:25;101624.66;;;22.42;56.49
51289;BME280;37372;52.294;5.152;2023-07-13T12:45:03;101623.84;;;22.70;54.86
51289;BME280;37372;52.294;5.152;2023-07-13T12:48:20;101613.47;;;22.71;53.93
51289;BME280;37372;52.294;5.152;2023-07-13T12:50:49;101605.78;;;22.24;53.89
51289;BME280;37372;52.294;5.152;2023-07-13T12:53:21;101617.38;;;22.41;52.37
51289;BME280;37372;52.294;5.152;2023-07-13T12:56:01;101617.75;;;22.29;54.13
51289;BME280;37372;52.294;5.152;2023-07-13T12:58:41;101609.50;;;22.48;53.11
51289;BME280;37372;52.294;5.152;2023-07-13T13:01:10;101619.28;;;22.46;53.84
51289;BME280;37372;52.294;5.152;2023-07-13T13:03:48;101628.09;;;22.29;54.72
51289;BME280;37372;52.294;5.152;2023-07-13T13:06:21;101617.41;;;21.92;55.61
51289;BME280;37372;52.294;5.152;2023-07-13T13:08:58;101626.97;;;21.75;54.68
51289;BME280;37372;52.294;5.152;2023-07-13T13:11:33;101633.75;;;21.64;55.41
51289;BME280;37372;52.294;5.152;2023-07-13T13:14:00;101628.88;;;21.90;55.74
51289;BME280;37372;52.294;5.152;2023-07-13T13:16:30;101643.63;;;21.96;55.13
51289;BME280;37372;52.294;5.152;2023-07-13T13:19:29;101646.56;;;22.25;54.09
51289;BME280;37372;52.294;5.152;2023-07-13T13:21:59;101637.56;;;22.33;54.89
51289;BME280;37372;52.294;5.152;2023-07-13T13:24:27;101636.22;;;22.25;55.22
51289;BME280;37372;52.294;5.152;2023-07-13T13:26:53;101640.84;;;22.40;54.26
51289;BME280;37372;52.294;5.152;2023-07-13T13:29:23;101633.78;;;22.53;54.15
51289;BME280;37372;52.294;5.152;2023-07-13T13:31:51;101641.63;;;22.11;54.86
51289;BME280;37372;52.294;5.152;2023-07-13T13:34:18;101643.31;;;22.47;54.66
51289;BME280;37372;52.294;5.152;2023-07-13T13:36:47;101634.28;;;22.60;51.89
51289;BME280;37372;52.294;5.152;2023-07-13T13:39:23;101643.63;;;22.79;52.21
51289;BME280;37372;52.294;5.152;2023-07-13T13:41:50;101639.19;;;22.73;55.03
51289;BME280;37372;52.294;5.152;2023-07-13T13:44:18;101644.03;;;22.67;52.85
51289;BME280;37372;52.294;5.152;2023-07-13T13:46:50;101641.03;;;22.54;53.53
51289;BME280;37372;52.294;5.152;2023-07-13T13:49:22;101650.44;;;22.68;53.80
51289;BME280;37372;52.294;5.152;2023-07-13T13:51:51;101655.69;;;22.40;53.41
51289;BME280;37372;52.294;5.152;2023-07-13T13:54:19;101660.19;;;22.36;54.92
51289;BME280;37372;52.294;5.152;2023-07-13T13:56:47;101655.09;;;22.43;52.99
51289;BME280;37372;52.294;5.152;2023-07-13T13:59:14;101645.09;;;22.37;52.60
51289;BME280;37372;52.294;5.152;2023-07-13T14:01:43;101650.56;;;22.13;52.79
51289;BME280;37372;52.294;5.152;2023-07-13T14:04:18;101650.41;;;22.34;53.73
51289;BME280;37372;52.294;5.152;2023-07-13T14:06:46;101653.63;;;22.56;52.66